createdAt,value
2018-04-11T00:00:28.875Z,75.89
2018-04-11T00:01:29.010Z,75.79
2018-04-11T00:02:29.151Z,75.60
2018-04-11T00:03:29.285Z,75.60
2018-04-11T00:04:29.420Z,75.42
2018-04-11T00:05:29.557Z,75.79
2018-04-11T00:06:29.692Z,75.32
2018-04-11T00:07:29.831Z,75.32
2018-04-11T00:08:29.964Z,75.89
2018-04-11T00:09:30.100Z,75.79
2018-04-11T00:10:30.243Z,75.89
2018-04-11T00:11:30.382Z,75.98
2018-04-11T00:12:30.517Z,76.27
2018-04-11T00:13:30.665Z,75.70
2018-04-11T00:14:30.820Z,75.51
2018-04-11T00:15:30.950Z,75.70
2018-04-11T00:16:31.088Z,75.79
2018-04-11T00:17:31.234Z,75.79
2018-04-11T00:18:31.368Z,76.37
2018-04-11T00:19:31.507Z,75.60
2018-04-11T00:20:31.641Z,76.12
2018-04-11T00:21:31.785Z,76.18
2018-04-11T00:22:31.929Z,75.51
2018-04-11T00:23:32.061Z,75.79
2018-04-11T00:24:32.192Z,75.35
2018-04-11T00:25:32.328Z,75.83
2018-04-11T00:26:32.470Z,75.64
2018-04-11T00:27:32.605Z,75.22
2018-04-11T00:28:32.795Z,75.74
2018-04-11T00:29:32.937Z,74.98
2018-04-11T00:30:33.091Z,75.16
2018-04-11T00:31:33.226Z,75.16
2018-04-11T00:32:33.364Z,74.49
2018-04-11T00:33:33.518Z,74.78
2018-04-11T00:34:33.658Z,74.21
2018-04-11T00:35:33.792Z,74.34
2018-04-11T00:36:33.935Z,73.58
2018-04-11T00:37:34.074Z,73.48
2018-04-11T00:38:34.209Z,73.58
2018-04-11T00:39:34.346Z,73.86
2018-04-11T00:40:34.486Z,73.48
2018-04-11T00:41:34.635Z,73.92
2018-04-11T00:42:34.764Z,74.40
2018-04-11T00:43:34.906Z,74.40
2018-04-11T00:44:35.042Z,74.98
2018-04-11T00:45:35.181Z,75.07
2018-04-11T00:46:35.317Z,75.35
2018-04-11T00:47:35.467Z,75.16
2018-04-11T00:48:35.602Z,74.40
2018-04-11T00:49:35.734Z,74.30
2018-04-11T00:50:35.878Z,74.40
2018-04-11T00:51:36.020Z,74.40
2018-04-11T00:52:36.160Z,75.07
2018-04-11T00:53:36.301Z,74.88
2018-04-11T00:54:36.446Z,75.60
2018-04-11T00:55:36.580Z,75.35
2018-04-11T00:56:36.749Z,75.42
2018-04-11T00:57:36.898Z,75.60
2018-04-11T00:58:37.036Z,75.42
2018-04-11T00:59:37.176Z,75.83
2018-04-11T01:00:37.311Z,75.70
2018-04-11T01:01:37.447Z,76.08
2018-04-11T01:02:37.584Z,75.45
2018-04-11T01:03:37.720Z,75.89
2018-04-11T01:04:37.856Z,75.83
2018-04-11T01:05:38.003Z,75.89
2018-04-11T01:06:38.142Z,76.18
2018-04-11T01:07:38.277Z,75.13
2018-04-11T01:08:38.416Z,75.42
2018-04-11T01:09:38.557Z,75.60
2018-04-11T01:10:38.694Z,75.51
2018-04-11T01:11:38.832Z,75.79
2018-04-11T01:12:38.966Z,76.18
2018-04-11T01:13:39.117Z,76.94
2018-04-11T01:14:39.941Z,76.65
2018-04-11T01:15:39.341Z,77.03
2018-04-11T01:16:39.487Z,76.46
2018-04-11T01:17:39.657Z,76.27
2018-04-11T01:18:39.785Z,76.27
2018-04-11T01:19:39.924Z,76.18
2018-04-11T01:20:40.057Z,75.98
2018-04-11T01:21:40.197Z,75.93
2018-04-11T01:22:40.331Z,75.74
2018-04-11T01:23:40.465Z,75.51
2018-04-11T01:24:40.610Z,75.60
2018-04-11T01:25:40.758Z,75.79
2018-04-11T01:26:40.888Z,75.70
2018-04-11T01:27:41.037Z,75.89
2018-04-11T01:28:41.169Z,75.60
2018-04-11T01:29:41.305Z,75.79
2018-04-11T01:30:41.449Z,75.51
2018-04-11T01:31:41.580Z,76.12
2018-04-11T01:32:41.725Z,75.83
2018-04-11T01:33:41.856Z,75.26
2018-04-11T01:34:41.992Z,74.40
2018-04-11T01:35:42.129Z,74.59
2018-04-11T01:36:42.265Z,74.40
2018-04-11T01:37:42.401Z,74.69
2018-04-11T01:38:42.541Z,74.11
2018-04-11T01:39:42.679Z,72.97
2018-04-11T01:40:42.819Z,73.44
2018-04-11T01:41:42.951Z,72.78
2018-04-11T01:42:43.091Z,72.78
2018-04-11T01:43:43.231Z,72.33
2018-04-11T01:44:43.365Z,71.86
2018-04-11T01:45:43.499Z,71.57
2018-04-11T01:46:43.641Z,71.09
2018-04-11T01:47:43.783Z,71.38
2018-04-11T01:48:43.924Z,71.28
2018-04-11T01:49:44.064Z,71.00
2018-04-11T01:50:44.198Z,70.65
2018-04-11T01:51:44.336Z,70.71
2018-04-11T01:52:44.478Z,70.17
2018-04-11T01:53:44.609Z,69.98
2018-04-11T01:54:44.753Z,70.07
2018-04-11T01:55:44.891Z,69.60
2018-04-11T01:56:45.028Z,69.02
2018-04-11T01:57:45.171Z,69.21
2018-04-11T01:58:45.932Z,69.50
2018-04-11T01:59:45.475Z,69.50
2018-04-11T02:00:45.612Z,68.93
2018-04-11T02:01:45.753Z,68.84
2018-04-11T02:02:45.896Z,68.84
2018-04-11T02:03:46.039Z,69.21
2018-04-11T02:04:46.178Z,69.02
2018-04-11T02:05:46.338Z,69.50
2018-04-11T02:06:46.461Z,69.02
2018-04-11T02:07:46.592Z,69.21
2018-04-11T02:08:46.732Z,69.21
2018-04-11T02:09:46.865Z,68.93
2018-04-11T02:10:47.015Z,69.50
2018-04-11T02:11:47.154Z,69.60
2018-04-11T02:12:47.300Z,69.60
2018-04-11T02:13:47.442Z,69.50
2018-04-11T02:14:47.614Z,69.31
2018-04-11T02:15:47.713Z,69.31
2018-04-11T02:16:47.847Z,69.12
2018-04-11T02:17:47.987Z,69.31
2018-04-11T02:18:48.131Z,69.76
2018-04-11T02:19:48.260Z,70.14
2018-04-11T02:20:48.400Z,70.33
2018-04-11T02:21:48.537Z,69.56
2018-04-11T02:22:48.672Z,70.14
2018-04-11T02:23:48.817Z,69.66
2018-04-11T02:24:48.947Z,69.95
2018-04-11T02:25:49.091Z,70.61
2018-04-11T02:26:49.222Z,70.61
2018-04-11T02:27:49.364Z,71.09
2018-04-11T02:28:49.539Z,70.90
2018-04-11T02:29:49.677Z,70.90
2018-04-11T02:30:49.813Z,71.19
2018-04-11T02:31:49.948Z,71.09
2018-04-11T02:32:50.083Z,70.75
2018-04-11T02:33:50.244Z,70.52
2018-04-11T02:34:50.383Z,71.03
2018-04-11T02:35:50.524Z,70.46
2018-04-11T02:36:50.662Z,70.56
2018-04-11T02:37:50.806Z,70.56
2018-04-11T02:38:50.943Z,70.75
2018-04-11T02:39:51.091Z,70.94
2018-04-11T02:40:51.226Z,70.65
2018-04-11T02:41:51.367Z,70.84
2018-04-11T02:42:51.570Z,70.17
2018-04-11T02:43:51.590Z,70.07
2018-04-11T02:44:51.743Z,70.07
2018-04-11T02:45:51.865Z,69.98
2018-04-11T02:46:51.999Z,69.89
2018-04-11T02:47:52.145Z,69.41
2018-04-11T02:48:52.283Z,69.79
2018-04-11T02:49:52.418Z,69.60
2018-04-11T02:50:52.563Z,69.98
2018-04-11T02:51:52.697Z,69.79
2018-04-11T02:52:52.837Z,70.07
2018-04-11T02:53:52.972Z,69.60
2018-04-11T02:54:53.113Z,69.79
2018-04-11T02:55:53.254Z,69.50
2018-04-11T02:56:53.395Z,69.02
2018-04-11T02:57:53.532Z,69.41
2018-04-11T02:58:53.669Z,69.31
2018-04-11T02:59:53.813Z,70.14
2018-04-11T03:00:53.944Z,70.52
2018-04-11T03:01:54.083Z,70.52
2018-04-11T03:02:54.220Z,70.81
2018-04-11T03:03:54.361Z,70.42
2018-04-11T03:04:54.503Z,70.61
2018-04-11T03:05:54.639Z,70.42
2018-04-11T03:06:54.781Z,70.90
2018-04-11T03:07:54.924Z,70.61
2018-04-11T03:08:55.060Z,70.17
2018-04-11T03:09:55.196Z,70.23
2018-04-11T03:10:55.343Z,70.07
2018-04-11T03:11:55.537Z,70.07
2018-04-11T03:12:55.554Z,69.89
2018-04-11T03:13:55.693Z,70.07
2018-04-11T03:14:55.837Z,69.70
2018-04-11T03:15:55.972Z,69.31
2018-04-11T03:16:56.120Z,69.41
2018-04-11T03:17:56.252Z,69.50
2018-04-11T03:18:56.388Z,69.41
2018-04-11T03:19:56.533Z,69.02
2018-04-11T03:20:56.673Z,69.02
2018-04-11T03:21:56.853Z,69.12
2018-04-11T03:22:56.949Z,69.12
2018-04-11T03:23:57.087Z,69.12
2018-04-11T03:24:57.216Z,69.02
2018-04-11T03:25:57.359Z,69.02
2018-04-11T03:26:57.504Z,68.93
2018-04-11T03:27:57.637Z,68.93
2018-04-11T03:28:57.776Z,69.02
2018-04-11T03:29:57.912Z,69.31
2018-04-11T03:30:58.056Z,69.31
2018-04-11T03:31:58.189Z,68.64
2018-04-11T03:32:58.330Z,69.12
2018-04-11T03:33:58.463Z,69.21
2018-04-11T03:34:58.608Z,68.93
2018-04-11T03:35:58.740Z,68.74
2018-04-11T03:36:58.878Z,68.74
2018-04-11T03:37:59.019Z,68.55
2018-04-11T03:38:59.176Z,68.55
2018-04-11T03:39:59.314Z,68.84
2018-04-11T03:40:59.484Z,69.31
2018-04-11T03:41:59.626Z,69.12
2018-04-11T03:42:59.766Z,69.50
2018-04-11T03:43:59.911Z,69.41
2018-04-11T03:45:00.048Z,69.60
2018-04-11T03:46:00.183Z,69.50
2018-04-11T03:47:00.319Z,69.50
2018-04-11T03:48:00.460Z,69.60
2018-04-11T03:49:00.598Z,69.21
2018-04-11T03:50:00.745Z,69.21
2018-04-11T03:51:00.880Z,69.50
2018-04-11T03:52:01.002Z,69.21
2018-04-11T03:53:01.201Z,69.50
2018-04-11T03:54:01.333Z,69.60
2018-04-11T03:55:01.469Z,69.21
2018-04-11T03:56:01.620Z,69.31
2018-04-11T03:57:01.757Z,69.31
2018-04-11T03:58:01.890Z,69.31
2018-04-11T03:59:02.036Z,69.50
2018-04-11T04:00:02.177Z,69.60
2018-04-11T04:01:02.311Z,69.98
2018-04-11T04:02:02.456Z,69.79
2018-04-11T04:03:02.589Z,69.98
2018-04-11T04:04:02.726Z,69.98
2018-04-11T04:05:02.867Z,70.04
2018-04-11T04:06:03.002Z,69.60
2018-04-11T04:07:03.140Z,69.70
2018-04-11T04:08:03.276Z,69.70
2018-04-11T04:09:03.412Z,70.14
2018-04-11T04:10:03.552Z,69.98
2018-04-11T04:11:03.697Z,69.89
2018-04-11T04:12:03.837Z,70.33
2018-04-11T04:13:03.975Z,70.04
2018-04-11T04:14:04.109Z,70.71
2018-04-11T04:15:04.251Z,70.90
2018-04-11T04:16:04.387Z,71.47
2018-04-11T04:17:04.525Z,71.82
2018-04-11T04:18:04.664Z,71.86
2018-04-11T04:19:04.809Z,72.33
2018-04-11T04:20:04.941Z,71.47
2018-04-11T04:21:05.079Z,71.38
2018-04-11T04:22:05.218Z,71.57
2018-04-11T04:23:05.363Z,71.28
2018-04-11T04:24:05.498Z,70.90
2018-04-11T04:25:05.637Z,71.09
2018-04-11T04:26:05.777Z,71.19
2018-04-11T04:27:05.915Z,71.28
2018-04-11T04:28:06.060Z,71.09
2018-04-11T04:29:06.206Z,70.94
2018-04-11T04:30:06.331Z,70.81
2018-04-11T04:31:06.471Z,70.52
2018-04-11T04:32:06.609Z,70.75
2018-04-11T04:33:06.744Z,70.46
2018-04-11T04:34:06.889Z,71.32
2018-04-11T04:35:07.022Z,71.22
2018-04-11T04:36:07.158Z,71.42
2018-04-11T04:37:07.302Z,70.65
2018-04-11T04:38:07.443Z,70.75
2018-04-11T04:39:07.596Z,70.46
2018-04-11T04:40:07.739Z,70.56
2018-04-11T04:41:07.880Z,70.65
2018-04-11T04:42:08.069Z,71.09
2018-04-11T04:43:08.153Z,71.03
2018-04-11T04:44:08.295Z,70.84
2018-04-11T04:45:08.432Z,71.32
2018-04-11T04:46:08.576Z,70.94
2018-04-11T04:47:08.715Z,71.03
2018-04-11T04:48:08.856Z,71.03
2018-04-11T04:49:08.996Z,70.65
2018-04-11T04:50:09.133Z,70.46
2018-04-11T04:51:09.286Z,70.27
2018-04-11T04:52:09.413Z,70.65
2018-04-11T04:53:09.549Z,70.65
2018-04-11T04:54:09.692Z,70.65
2018-04-11T04:55:09.834Z,70.17
2018-04-11T04:56:09.969Z,69.70
2018-04-11T04:57:10.114Z,70.36
2018-04-11T04:58:10.245Z,70.65
2018-04-11T04:59:10.386Z,70.75
2018-04-11T05:00:10.523Z,70.36
2018-04-11T05:01:10.659Z,69.98
2018-04-11T05:02:10.802Z,70.27
2018-04-11T05:03:10.947Z,70.84
2018-04-11T05:04:11.088Z,70.75
2018-04-11T05:05:11.226Z,70.07
2018-04-11T05:06:11.368Z,69.89
2018-04-11T05:07:11.514Z,70.17
2018-04-11T05:08:11.647Z,70.07
2018-04-11T05:09:11.784Z,69.79
2018-04-11T05:10:11.919Z,69.98
2018-04-11T05:11:12.062Z,69.89
2018-04-11T05:12:12.205Z,69.70
2018-04-11T05:13:12.341Z,70.17
2018-04-11T05:14:12.539Z,69.60
2018-04-11T05:15:12.615Z,69.60
2018-04-11T05:16:12.757Z,69.60
2018-04-11T05:17:12.893Z,69.79
2018-04-11T05:18:13.056Z,70.75
2018-04-11T05:19:13.191Z,70.94
2018-04-11T05:20:13.335Z,70.46
2018-04-11T05:21:13.947Z,70.94
2018-04-11T05:22:13.615Z,71.22
2018-04-11T05:23:13.757Z,71.03
2018-04-11T05:24:13.948Z,71.13
2018-04-11T05:25:14.100Z,72.37
2018-04-11T05:26:14.238Z,72.28
2018-04-11T05:27:14.376Z,71.89
2018-04-11T05:28:14.518Z,72.62
2018-04-11T05:29:14.659Z,73.58
2018-04-11T05:30:14.804Z,73.86
2018-04-11T05:31:14.938Z,74.44
2018-04-11T05:32:15.083Z,74.63
2018-04-11T05:33:15.221Z,75.01
2018-04-11T05:34:15.359Z,75.39
2018-04-11T05:35:15.494Z,75.64
2018-04-11T05:36:15.676Z,76.03
2018-04-11T05:37:15.715Z,76.40
2018-04-11T05:38:15.857Z,76.03
2018-04-11T05:39:15.993Z,76.88
2018-04-11T05:40:16.132Z,76.50
2018-04-11T05:41:16.274Z,76.88
2018-04-11T05:42:16.413Z,77.23
2018-04-11T05:43:16.554Z,78.09
2018-04-11T05:44:16.687Z,78.09
2018-04-11T05:45:16.829Z,78.37
2018-04-11T05:46:16.972Z,79.52
2018-04-11T05:47:17.113Z,79.80
2018-04-11T05:48:17.248Z,79.61
2018-04-11T05:49:17.390Z,79.61
2018-04-11T05:50:17.521Z,79.71
2018-04-11T05:51:17.659Z,79.52
2018-04-11T05:52:17.795Z,79.14
2018-04-11T05:53:17.936Z,78.56
2018-04-11T05:54:18.069Z,79.14
2018-04-11T05:55:18.211Z,78.22
2018-04-11T05:56:18.356Z,78.03
2018-04-11T05:57:18.496Z,78.22
2018-04-11T05:58:18.643Z,76.88
2018-04-11T05:59:18.781Z,77.36
2018-04-11T06:00:18.922Z,77.26
2018-04-11T06:01:19.061Z,77.30
2018-04-11T06:02:19.208Z,76.82
2018-04-11T06:03:19.349Z,76.64
2018-04-11T06:04:19.488Z,76.06
2018-04-11T06:05:19.702Z,76.35
2018-04-11T06:06:19.711Z,75.78
2018-04-11T06:07:19.851Z,75.59
2018-04-11T06:08:19.990Z,75.78
2018-04-11T06:09:20.138Z,76.06
2018-04-11T06:10:20.272Z,75.87
2018-04-11T06:11:20.406Z,75.96
2018-04-11T06:12:20.546Z,76.69
2018-04-11T06:13:20.685Z,77.08
2018-04-11T06:14:20.837Z,77.21
2018-04-11T06:15:20.976Z,77.40
2018-04-11T06:16:21.114Z,76.73
2018-04-11T06:17:21.257Z,77.11
2018-04-11T06:18:21.396Z,77.21
2018-04-11T06:19:21.527Z,76.82
2018-04-11T06:20:21.672Z,76.35
2018-04-11T06:21:21.805Z,76.45
2018-04-11T06:22:21.940Z,76.25
2018-04-11T06:23:22.078Z,75.96
2018-04-11T06:24:22.214Z,75.87
2018-04-11T06:25:22.350Z,76.25
2018-04-11T06:26:22.487Z,76.00
2018-04-11T06:27:22.630Z,75.52
2018-04-11T06:28:22.765Z,75.81
2018-04-11T06:29:22.908Z,75.34
2018-04-11T06:30:23.045Z,75.52
2018-04-11T06:31:23.187Z,75.62
2018-04-11T06:32:23.326Z,75.43
2018-04-11T06:33:23.473Z,75.14
2018-04-11T06:34:23.618Z,75.34
2018-04-11T06:35:23.774Z,75.34
2018-04-11T06:36:23.901Z,75.24
2018-04-11T06:37:24.048Z,75.05
2018-04-11T06:38:24.183Z,75.81
2018-04-11T06:39:24.320Z,75.71
2018-04-11T06:40:24.461Z,75.81
2018-04-11T06:41:24.605Z,75.81
2018-04-11T06:42:24.740Z,75.91
2018-04-11T06:43:24.876Z,75.62
2018-04-11T06:44:25.013Z,75.34
2018-04-11T06:45:25.151Z,75.81
2018-04-11T06:46:25.291Z,75.52
2018-04-11T06:47:25.429Z,75.81
2018-04-11T06:48:25.566Z,76.10
2018-04-11T06:49:25.706Z,75.91
2018-04-11T06:50:25.845Z,75.62
2018-04-11T06:51:25.986Z,75.81
2018-04-11T06:52:26.123Z,75.34
2018-04-11T06:53:26.263Z,76.16
2018-04-11T06:54:26.412Z,77.11
2018-04-11T06:55:26.539Z,77.21
2018-04-11T06:56:26.684Z,78.13
2018-04-11T06:57:26.812Z,79.08
2018-04-11T06:58:26.953Z,79.27
2018-04-11T06:59:27.087Z,79.17
2018-04-11T07:00:27.275Z,79.22
2018-04-11T07:01:27.413Z,79.02
2018-04-11T07:02:27.549Z,78.93
2018-04-11T07:03:27.686Z,78.45
2018-04-11T07:04:27.848Z,78.74
2018-04-11T07:05:27.990Z,78.45
2018-04-11T07:06:28.130Z,78.26
2018-04-11T07:07:28.268Z,78.30
2018-04-11T07:08:28.410Z,77.92
2018-04-11T07:09:28.541Z,78.16
2018-04-11T07:10:28.675Z,78.11
2018-04-11T07:11:28.817Z,77.06
2018-04-11T07:12:28.958Z,77.15
2018-04-11T07:13:29.098Z,76.86
2018-04-11T07:14:29.240Z,77.44
2018-04-11T07:15:29.370Z,76.67
2018-04-11T07:16:29.512Z,76.77
2018-04-11T07:17:29.653Z,76.67
2018-04-11T07:18:29.797Z,76.77
2018-04-11T07:19:29.934Z,76.86
2018-04-11T07:20:30.070Z,76.96
2018-04-11T07:21:30.210Z,76.77
2018-04-11T07:22:30.349Z,77.15
2018-04-11T07:23:30.488Z,77.06
2018-04-11T07:24:30.638Z,77.06
2018-04-11T07:25:30.783Z,76.77
2018-04-11T07:26:30.921Z,76.77
2018-04-11T07:27:31.059Z,76.86
2018-04-11T07:28:31.195Z,76.67
2018-04-11T07:29:31.334Z,77.44
2018-04-11T07:30:31.487Z,77.97
2018-04-11T07:31:31.624Z,78.36
2018-04-11T07:32:31.763Z,79.22
2018-04-11T07:33:32.456Z,79.22
2018-04-11T07:34:32.003Z,78.45
2018-04-11T07:35:32.143Z,78.68
2018-04-11T07:36:32.287Z,79.06
2018-04-11T07:37:32.425Z,78.49
2018-04-11T07:38:32.562Z,78.68
2018-04-11T07:39:32.699Z,78.01
2018-04-11T07:40:32.840Z,78.01
2018-04-11T07:41:32.976Z,77.34
2018-04-11T07:42:33.115Z,76.86
2018-04-11T07:43:33.254Z,76.96
2018-04-11T07:44:33.402Z,77.30
2018-04-11T07:45:33.540Z,77.53
2018-04-11T07:46:33.676Z,77.97
2018-04-11T07:47:33.812Z,78.74
2018-04-11T07:48:33.952Z,79.22
2018-04-11T07:49:34.091Z,79.65
2018-04-11T07:50:34.228Z,79.98
2018-04-11T07:51:34.367Z,80.22
2018-04-11T07:52:34.504Z,80.13
2018-04-11T07:53:34.644Z,80.61
2018-04-11T07:54:34.797Z,80.13
2018-04-11T07:55:34.917Z,81.18
2018-04-11T07:56:35.056Z,80.36
2018-04-11T07:57:35.196Z,80.61
2018-04-11T07:58:35.337Z,79.94
2018-04-11T07:59:35.487Z,79.65
2018-04-11T08:00:35.621Z,80.04
2018-04-11T08:01:35.762Z,80.61
2018-04-11T08:02:35.902Z,80.61
2018-04-11T08:03:36.041Z,80.80
2018-04-11T08:04:36.174Z,81.27
2018-04-11T08:05:36.314Z,81.62
2018-04-11T08:06:36.456Z,81.52
2018-04-11T08:07:36.590Z,82.76
2018-04-11T08:08:36.733Z,82.29
2018-04-11T08:09:36.882Z,83.05
2018-04-11T08:10:37.009Z,83.24
2018-04-11T08:11:37.149Z,83.43
2018-04-11T08:12:37.283Z,83.43
2018-04-11T08:13:37.428Z,83.91
2018-04-11T08:14:37.564Z,84.10
2018-04-11T08:15:37.703Z,84.10
2018-04-11T08:16:37.849Z,83.62
2018-04-11T08:17:37.984Z,82.67
2018-04-11T08:18:38.123Z,82.86
2018-04-11T08:19:38.256Z,83.05
2018-04-11T08:20:38.427Z,83.24
2018-04-11T08:21:38.532Z,83.53
2018-04-11T08:22:38.677Z,83.05
2018-04-11T08:23:38.805Z,83.34
2018-04-11T08:24:38.940Z,82.38
2018-04-11T08:25:39.078Z,83.43
2018-04-11T08:26:39.217Z,83.14
2018-04-11T08:27:39.359Z,83.34
2018-04-11T08:28:39.506Z,82.76
2018-04-11T08:29:39.650Z,82.76
2018-04-11T08:30:39.782Z,83.24
2018-04-11T08:31:39.927Z,82.29
2018-04-11T08:32:40.065Z,81.90
2018-04-11T08:33:40.204Z,82.00
2018-04-11T08:34:40.341Z,81.81
2018-04-11T08:35:40.487Z,81.52
2018-04-11T08:36:40.621Z,81.52
2018-04-11T08:37:40.753Z,81.27
2018-04-11T08:38:40.895Z,81.27
2018-04-11T08:39:41.035Z,80.80
2018-04-11T08:40:41.175Z,81.24
2018-04-11T08:41:41.313Z,81.04
2018-04-11T08:42:41.450Z,80.95
2018-04-11T08:43:41.628Z,80.47
2018-04-11T08:44:41.771Z,81.43
2018-04-11T08:45:41.910Z,81.43
2018-04-11T08:46:42.063Z,81.33
2018-04-11T08:47:42.205Z,82.00
2018-04-11T08:48:42.342Z,81.52
2018-04-11T08:49:42.493Z,82.57
2018-04-11T08:50:42.629Z,82.48
2018-04-11T08:51:42.765Z,82.38
2018-04-11T08:52:42.899Z,82.38
2018-04-11T08:53:43.036Z,83.14
2018-04-11T08:54:43.175Z,83.62
2018-04-11T08:55:43.326Z,83.43
2018-04-11T08:56:43.448Z,83.53
2018-04-11T08:57:43.592Z,83.24
2018-04-11T08:58:43.735Z,83.53
2018-04-11T08:59:43.892Z,83.43
2018-04-11T09:00:44.011Z,83.43
2018-04-11T09:01:44.142Z,83.81
2018-04-11T09:02:44.311Z,83.91
2018-04-11T09:03:44.403Z,83.62
2018-04-11T09:04:44.547Z,82.52
2018-04-11T09:05:44.683Z,83.24
2018-04-11T09:06:44.823Z,82.71
2018-04-11T09:07:44.966Z,82.32
2018-04-11T09:08:45.111Z,82.61
2018-04-11T09:09:45.245Z,81.47
2018-04-11T09:10:45.384Z,82.23
2018-04-11T09:11:45.522Z,82.23
2018-04-11T09:12:45.663Z,82.04
2018-04-11T09:13:45.804Z,81.56
2018-04-11T09:14:45.937Z,81.66
2018-04-11T09:15:46.080Z,81.95
2018-04-11T09:16:46.228Z,82.42
2018-04-11T09:17:46.379Z,82.42
2018-04-11T09:18:46.520Z,82.00
2018-04-11T09:19:46.651Z,81.14
2018-04-11T09:20:46.849Z,80.80
2018-04-11T09:21:46.928Z,81.56
2018-04-11T09:22:47.075Z,80.90
2018-04-11T09:23:47.207Z,80.22
2018-04-11T09:24:47.409Z,80.51
2018-04-11T09:25:47.409Z,80.32
2018-04-11T09:26:47.543Z,80.32
2018-04-11T09:27:47.676Z,79.79
2018-04-11T09:28:47.815Z,80.22
2018-04-11T09:29:47.958Z,80.51
2018-04-11T09:30:48.089Z,80.41
2018-04-11T09:31:48.251Z,80.41
2018-04-11T09:32:48.367Z,79.56
2018-04-11T09:33:48.505Z,80.13
2018-04-11T09:34:48.700Z,80.65
2018-04-11T09:35:48.833Z,80.61
2018-04-11T09:36:48.974Z,80.32
2018-04-11T09:37:49.121Z,80.32
2018-04-11T09:38:49.302Z,80.13
2018-04-11T09:39:49.403Z,80.32
2018-04-11T09:40:49.549Z,79.88
2018-04-11T09:41:49.681Z,78.93
2018-04-11T09:42:49.829Z,79.02
2018-04-11T09:43:49.969Z,79.12
2018-04-11T09:44:50.103Z,78.55
2018-04-11T09:45:50.238Z,77.82
2018-04-11T09:46:50.381Z,77.25
2018-04-11T09:47:50.522Z,77.06
2018-04-11T09:48:50.659Z,77.34
2018-04-11T09:49:50.802Z,76.67
2018-04-11T09:50:50.949Z,76.10
2018-04-11T09:51:51.109Z,76.62
2018-04-11T09:52:51.215Z,76.52
2018-04-11T09:53:51.357Z,75.76
2018-04-11T09:54:51.492Z,75.66
2018-04-11T09:55:51.623Z,75.47
2018-04-11T09:56:51.764Z,75.47
2018-04-11T09:57:51.923Z,74.13
2018-04-11T09:58:52.035Z,74.26
2018-04-11T09:59:52.173Z,74.36
2018-04-11T10:00:52.310Z,73.69
2018-04-11T10:01:52.449Z,72.92
2018-04-11T10:02:52.586Z,72.92
2018-04-11T10:03:52.724Z,73.02
2018-04-11T10:04:52.863Z,73.63
2018-04-11T10:05:53.007Z,72.00
2018-04-11T10:06:53.213Z,72.34
2018-04-11T10:07:53.290Z,72.54
2018-04-11T10:08:53.432Z,72.00
2018-04-11T10:09:53.580Z,71.52
2018-04-11T10:10:53.721Z,71.23
2018-04-11T10:11:54.494Z,70.76
2018-04-11T10:12:54.032Z,70.79
2018-04-11T10:13:54.172Z,71.71
2018-04-11T10:14:54.315Z,71.62
2018-04-11T10:15:54.467Z,71.52
2018-04-11T10:16:54.602Z,72.00
2018-04-11T10:17:54.740Z,73.30
2018-04-11T10:18:54.882Z,73.94
2018-04-11T10:19:55.021Z,74.04
2018-04-11T10:20:55.162Z,75.18
2018-04-11T10:21:55.297Z,75.76
2018-04-11T10:22:55.432Z,74.04
2018-04-11T10:23:55.565Z,73.55
2018-04-11T10:24:55.730Z,73.30
2018-04-11T10:25:55.848Z,73.50
2018-04-11T10:26:55.990Z,74.07
2018-04-11T10:27:56.132Z,74.07
2018-04-11T10:28:56.271Z,74.07
2018-04-11T10:29:56.411Z,73.30
2018-04-11T10:30:56.557Z,72.83
2018-04-11T10:31:56.695Z,72.44
2018-04-11T10:32:56.840Z,71.77
2018-04-11T10:33:56.985Z,72.44
2018-04-11T10:34:57.122Z,72.06
2018-04-11T10:35:57.260Z,72.19
2018-04-11T10:36:57.401Z,71.42
2018-04-11T10:37:57.553Z,71.14
2018-04-11T10:38:57.696Z,70.09
2018-04-11T10:39:57.837Z,70.03
2018-04-11T10:40:57.976Z,69.89
2018-04-11T10:41:58.111Z,69.54
2018-04-11T10:42:58.243Z,69.83
2018-04-11T10:43:58.383Z,69.83
2018-04-11T10:44:58.527Z,69.39
2018-04-11T10:45:58.661Z,68.33
2018-04-11T10:46:58.832Z,68.05
2018-04-11T10:47:58.945Z,68.05
2018-04-11T10:48:59.092Z,68.72
2018-04-11T10:49:59.257Z,67.99
2018-04-11T10:50:59.398Z,66.26
2018-04-11T10:51:59.541Z,65.97
2018-04-11T10:52:59.684Z,65.88
2018-04-11T10:53:59.823Z,66.00
2018-04-11T10:54:59.968Z,65.52
2018-04-11T10:56:00.115Z,63.70
2018-04-11T10:57:00.256Z,63.79
2018-04-11T10:58:00.398Z,63.64
2018-04-11T10:59:00.543Z,62.16
2018-04-11T11:00:00.687Z,60.66
2018-04-11T11:01:00.829Z,58.73
2018-04-11T11:02:00.968Z,57.60
2018-04-11T11:03:01.118Z,57.77
2018-04-11T11:04:01.263Z,58.47
2018-04-11T11:05:01.452Z,57.90
2018-04-11T11:06:02.485Z,58.35
2018-04-11T11:07:01.810Z,57.58
2018-04-11T11:08:01.953Z,57.60
2018-04-11T11:09:02.097Z,56.93
2018-04-11T11:10:02.236Z,56.77
2018-04-11T11:11:02.382Z,55.52
2018-04-11T11:12:02.528Z,54.65
2018-04-11T11:13:02.676Z,55.13
2018-04-11T11:14:02.827Z,55.40
2018-04-11T11:15:02.976Z,55.11
2018-04-11T11:16:03.119Z,54.63
2018-04-11T11:17:03.262Z,54.63
2018-04-11T11:18:03.408Z,54.91
2018-04-11T11:19:03.556Z,55.85
2018-04-11T11:20:03.707Z,55.85
2018-04-11T11:21:03.856Z,54.79
2018-04-11T11:22:03.993Z,54.69
2018-04-11T11:23:04.146Z,54.69
2018-04-11T11:24:04.281Z,54.99
2018-04-11T11:25:04.433Z,54.43
2018-04-11T11:26:04.573Z,52.63
2018-04-11T11:27:04.718Z,52.12
2018-04-11T11:28:04.862Z,52.12
2018-04-11T11:29:05.008Z,52.22
2018-04-11T11:30:05.139Z,52.22
2018-04-11T11:31:05.292Z,54.05
2018-04-11T11:32:05.442Z,53.09
2018-04-11T11:33:05.590Z,52.89
2018-04-11T11:34:05.725Z,52.70
2018-04-11T11:35:05.883Z,53.28
2018-04-11T11:36:06.024Z,51.79
2018-04-11T11:37:06.172Z,48.35
2018-04-11T11:38:06.315Z,43.99
2018-04-11T11:39:06.458Z,40.96
2018-04-11T11:40:06.604Z,38.89
2018-04-11T11:41:06.751Z,36.79
2018-04-11T11:42:06.890Z,35.68
2018-04-11T11:43:07.041Z,35.37
2018-04-11T11:44:07.189Z,35.22
2018-04-11T11:45:07.338Z,34.70
2018-04-11T11:46:07.482Z,36.12
2018-04-11T11:47:07.645Z,36.58
2018-04-11T11:48:07.793Z,37.82
2018-04-11T11:49:07.937Z,39.53
2018-04-11T11:50:08.093Z,40.98
2018-04-11T11:51:08.234Z,41.15
2018-04-11T11:52:08.407Z,41.81
2018-04-11T11:53:08.544Z,41.88
2018-04-11T11:54:08.693Z,43.96
2018-04-11T11:55:08.838Z,45.12
2018-04-11T11:56:09.020Z,45.48
2018-04-11T11:57:09.155Z,45.65
2018-04-11T11:58:09.302Z,45.92
2018-04-11T11:59:09.444Z,46.88
2018-04-11T12:00:09.591Z,47.56
2018-04-11T12:01:09.736Z,48.90
2018-04-11T12:02:09.894Z,48.88
2018-04-11T12:03:10.033Z,49.46
2018-04-11T12:04:10.183Z,50.10
2018-04-11T12:05:10.327Z,50.32
2018-04-11T12:06:10.481Z,51.26
2018-04-11T12:07:10.627Z,52.10
2018-04-11T12:08:10.777Z,52.46
2018-04-11T12:09:10.917Z,54.00
2018-04-11T12:10:11.060Z,53.06
2018-04-11T12:11:11.205Z,52.12
2018-04-11T12:12:11.350Z,52.80
2018-04-11T12:13:11.498Z,53.38
2018-04-11T12:14:11.656Z,52.44
2018-04-11T12:15:11.796Z,51.79
2018-04-11T12:16:11.936Z,50.83
2018-04-11T12:17:12.082Z,50.57
2018-04-11T12:18:12.219Z,50.09
2018-04-11T12:19:12.368Z,48.57
2018-04-11T12:20:12.516Z,49.15
2018-04-11T12:21:12.659Z,50.11
2018-04-11T12:22:12.804Z,49.24
2018-04-11T12:23:12.949Z,49.24
2018-04-11T12:24:13.093Z,48.57
2018-04-11T12:25:13.239Z,47.99
2018-04-11T12:26:13.389Z,47.89
2018-04-11T12:27:13.532Z,48.08
2018-04-11T12:28:13.680Z,47.89
2018-04-11T12:29:13.846Z,48.95
2018-04-11T12:30:13.984Z,47.80
2018-04-11T12:31:14.129Z,47.77
2018-04-11T12:32:14.276Z,47.51
2018-04-11T12:33:14.412Z,45.28
2018-04-11T12:34:14.579Z,42.74
2018-04-11T12:35:14.702Z,40.28
2018-04-11T12:36:14.855Z,38.02
2018-04-11T12:37:15.007Z,35.24
2018-04-11T12:38:15.151Z,33.54
2018-04-11T12:39:15.293Z,31.41
2018-04-11T12:40:15.435Z,29.58
2018-04-11T12:41:15.589Z,28.83
2018-04-11T12:42:15.749Z,27.98
2018-04-11T12:43:15.897Z,27.41
2018-04-11T12:44:16.042Z,26.17
2018-04-11T12:45:16.195Z,25.68
2018-04-11T12:46:16.347Z,25.60
2018-04-11T12:47:16.503Z,24.14
2018-04-11T12:48:16.650Z,25.59
2018-04-11T12:49:16.837Z,25.74
2018-04-11T12:50:16.955Z,25.73
2018-04-11T12:51:17.106Z,26.47
2018-04-11T12:52:17.260Z,27.03
2018-04-11T12:53:17.412Z,28.28
2018-04-11T12:54:17.561Z,28.86